Time;durP1;ratioP1;P1;durP2;ratioP2;P2;SDS_P1;SDS_P2;PMS_P1;PMS_P2;Temp;Humidity;BMP_temperature;BMP_pressure;BME280_temperature;BME280_humidity;BME280_pressure;Samples;Min_cycle;Max_cycle;Signal;HPM_P1;HPM_P2
2023/07/30 00:01:10;;;;;;;1.90;1.70;;;18.10;99.90;;;;;;5029737;28;20531;-75
2023/07/30 00:03:38;;;;;;;2.00;1.80;;;18.20;99.90;;;;;;5031152;28;20468;-76
2023/07/30 00:06:05;;;;;;;2.17;1.90;;;18.10;99.90;;;;;;5028627;28;20461;-75
2023/07/30 00:08:31;;;;;;;2.93;1.73;;;18.10;99.90;;;;;;5036686;28;20484;-74
2023/07/30 00:10:58;;;;;;;2.00;1.87;;;18.10;99.90;;;;;;5032278;28;20487;-75
2023/07/30 00:13:25;;;;;;;2.60;2.30;;;18.00;99.90;;;;;;5042553;28;20468;-76
2023/07/30 00:15:52;;;;;;;2.10;1.90;;;18.00;99.90;;;;;;5050590;28;20467;-74
2023/07/30 00:18:19;;;;;;;1.60;1.50;;;18.00;99.90;;;;;;5050321;28;20562;-75
2023/07/30 00:20:47;;;;;;;2.07;1.87;;;17.90;99.90;;;;;;5050842;28;20456;-75
2023/07/30 00:23:13;;;;;;;2.87;2.30;;;17.90;99.90;;;;;;5019563;28;20468;-76
2023/07/30 00:25:39;;;;;;;2.93;2.50;;;18.00;99.90;;;;;;5011118;28;20957;-75
2023/07/30 00:28:06;;;;;;;3.00;2.70;;;17.90;99.90;;;;;;5010292;28;20710;-74
2023/07/30 00:30:33;;;;;;;4.17;3.13;;;17.90;99.90;;;;;;5010956;28;20485;-75
2023/07/30 00:32:59;;;;;;;2.60;2.40;;;17.80;99.90;;;;;;5011934;28;20846;-75
2023/07/30 00:35:26;;;;;;;3.17;2.83;;;17.90;99.90;;;;;;5017479;28;20465;-75
2023/07/30 00:37:54;;;;;;;2.70;2.50;;;17.80;99.90;;;;;;5026708;28;20500;-75
2023/07/30 00:40:21;;;;;;;3.13;2.60;;;17.80;99.90;;;;;;5010747;28;20457;-75
2023/07/30 00:42:47;;;;;;;2.97;2.53;;;17.90;99.90;;;;;;5010903;28;20462;-75
2023/07/30 00:45:14;;;;;;;3.30;3.00;;;17.80;99.90;;;;;;5009965;28;20969;-75
2023/07/30 00:47:42;;;;;;;4.90;2.93;;;17.90;99.90;;;;;;5018597;28;20489;-76
2023/07/30 00:50:11;;;;;;;2.70;2.37;;;17.90;99.90;;;;;;5026806;28;20464;-75
2023/07/30 00:52:38;;;;;;;3.90;2.97;;;17.90;99.90;;;;;;5018711;28;20485;-75
2023/07/30 00:55:08;;;;;;;2.80;2.17;;;17.90;99.90;;;;;;5027975;28;20468;-75
2023/07/30 00:57:36;;;;;;;2.80;2.33;;;17.90;99.90;;;;;;5016162;28;20490;-75
2023/07/30 01:00:04;;;;;;;2.90;2.60;;;17.80;99.90;;;;;;5010164;28;21000;-75
2023/07/30 01:02:32;;;;;;;3.00;2.80;;;17.80;99.90;;;;;;5023626;28;21019;-75
2023/07/30 01:05:00;;;;;;;2.60;2.40;;;17.80;99.90;;;;;;5013101;28;20846;-75
2023/07/30 01:07:27;;;;;;;3.23;2.93;;;17.80;99.90;;;;;;5010171;28;20481;-75
2023/07/30 01:09:54;;;;;;;3.03;2.73;;;17.80;99.90;;;;;;5010547;28;20461;-75
2023/07/30 01:12:22;;;;;;;3.30;2.50;;;17.80;99.90;;;;;;5010246;28;20477;-75
2023/07/30 01:14:49;;;;;;;3.10;2.33;;;17.80;99.90;;;;;;5010421;28;20957;-75
2023/07/30 01:17:16;;;;;;;4.47;3.13;;;17.80;99.90;;;;;;5017775;28;20479;-75
2023/07/30 01:19:43;;;;;;;3.03;2.30;;;17.80;99.90;;;;;;5025281;28;20468;-74
2023/07/30 01:22:11;;;;;;;3.07;2.77;;;17.80;99.90;;;;;;5019832;28;20468;-74
2023/07/30 01:24:38;;;;;;;2.80;2.53;;;17.80;99.90;;;;;;5010482;28;20848;-74
2023/07/30 01:27:08;;;;;;;3.13;2.80;;;17.80;99.90;;;;;;5025945;28;20467;-75
2023/07/30 01:29:42;;;;;;;2.93;2.40;;;17.80;99.90;;;;;;5023816;28;20464;-75
2023/07/30 01:32:12;;;;;;;2.60;2.40;;;17.80;99.90;;;;;;5013612;28;20951;-75
2023/07/30 01:34:43;;;;;;;3.53;3.23;;;17.80;99.90;;;;;;5016193;28;20465;-75
2023/07/30 01:37:13;;;;;;;3.80;2.77;;;17.80;99.90;;;;;;5017683;28;20458;-75
2023/07/30 01:39:43;;;;;;;3.20;2.40;;;17.80;99.90;;;;;;5016015;28;20456;-75
2023/07/30 01:42:12;;;;;;;3.40;3.10;;;17.80;99.90;;;;;;5013304;28;20458;-75
2023/07/30 01:44:39;;;;;;;2.63;2.43;;;17.80;99.90;;;;;;5021864;28;20487;-75
2023/07/30 01:47:06;;;;;;;3.00;2.50;;;17.80;99.90;;;;;;5011723;28;20458;-75
2023/07/30 01:49:33;;;;;;;3.70;3.30;;;17.80;99.90;;;;;;5010250;28;20458;-75
2023/07/30 01:52:00;;;;;;;3.37;3.07;;;17.80;99.90;;;;;;5018128;28;20477;-75
2023/07/30 01:54:28;;;;;;;2.97;2.27;;;17.80;99.90;;;;;;5013641;28;20951;-75
2023/07/30 01:56:55;;;;;;;2.60;2.40;;;17.70;99.90;;;;;;5046081;28;20467;-75
2023/07/30 01:59:22;;;;;;;2.40;2.20;;;17.70;99.90;;;;;;5052941;28;20483;-75
2023/07/30 02:01:48;;;;;;;3.10;2.63;;;17.70;99.90;;;;;;5053638;28;20466;-75
2023/07/30 02:04:16;;;;;;;2.20;2.00;;;17.70;99.90;;;;;;5053117;28;20852;-75
2023/07/30 02:06:43;;;;;;;2.73;2.53;;;17.60;99.90;;;;;;5052811;28;21017;-75
2023/07/30 02:09:09;;;;;;;2.50;2.30;;;17.60;99.90;;;;;;5042325;28;20476;-75
2023/07/30 02:11:37;;;;;;;2.67;2.40;;;17.60;99.90;;;;;;5013525;28;20481;-75
2023/07/30 02:14:04;;;;;;;2.43;2.10;;;17.60;99.90;;;;;;5021406;28;20839;-74
2023/07/30 02:16:31;;;;;;;2.70;2.43;;;17.60;99.90;;;;;;5037536;28;20463;-75
2023/07/30 02:18:58;;;;;;;3.13;2.57;;;17.60;99.90;;;;;;5053100;28;20479;-75
2023/07/30 02:21:24;;;;;;;2.57;2.37;;;17.50;99.90;;;;;;5033221;28;20456;-75
2023/07/30 02:23:51;;;;;;;3.10;2.37;;;17.50;99.90;;;;;;5024953;28;21182;-75
2023/07/30 02:26:18;;;;;;;3.07;2.30;;;17.50;99.90;;;;;;5051177;28;20470;-75
2023/07/30 02:28:46;;;;;;;2.60;2.40;;;17.50;99.90;;;;;;5052585;28;20491;-75
2023/07/30 02:31:12;;;;;;;2.60;2.20;;;17.40;99.90;;;;;;5052463;28;20874;-75
2023/07/30 02:33:39;;;;;;;2.57;2.37;;;17.40;99.90;;;;;;5048869;28;20471;-75
2023/07/30 02:36:06;;;;;;;2.80;2.10;;;17.40;99.90;;;;;;5016048;28;20985;-75
2023/07/30 02:38:32;;;;;;;2.20;2.00;;;17.40;99.90;;;;;;5020095;28;21027;-75
2023/07/30 02:40:59;;;;;;;2.50;2.20;;;17.40;99.90;;;;;;5020699;28;20461;-75
2023/07/30 02:43:26;;;;;;;3.03;2.10;;;17.40;99.90;;;;;;5024184;28;20453;-75
2023/07/30 02:45:54;;;;;;;2.23;2.03;;;17.40;99.90;;;;;;5032595;28;20487;-75
2023/07/30 02:48:20;;;;;;;3.30;2.50;;;17.40;99.90;;;;;;5021476;28;20480;-75
2023/07/30 02:50:47;;;;;;;2.40;2.20;;;17.40;99.90;;;;;;5020998;28;20468;-75
2023/07/30 02:53:14;;;;;;;3.27;2.30;;;17.40;99.90;;;;;;5015293;28;21035;-74
2023/07/30 02:55:40;;;;;;;2.90;1.73;;;17.40;99.90;;;;;;5052446;28;20475;-75
2023/07/30 02:58:07;;;;;;;3.60;2.50;;;17.40;99.90;;;;;;5051825;28;21004;-74
2023/07/30 03:00:34;;;;;;;2.70;2.23;;;17.40;99.90;;;;;;5052055;28;20473;-75
2023/07/30 03:03:02;;;;;;;3.47;2.37;;;17.30;99.90;;;;;;5052234;28;20463;-75
2023/07/30 03:05:29;;;;;;;1.70;1.60;;;17.30;99.90;;;;;;5051814;28;20463;-75
2023/07/30 03:07:55;;;;;;;2.63;2.20;;;17.30;99.90;;;;;;5051748;28;20479;-75
2023/07/30 03:10:22;;;;;;;3.30;2.53;;;17.20;99.90;;;;;;5051694;28;20466;-75
2023/07/30 03:12:49;;;;;;;3.63;1.80;;;17.20;99.90;;;;;;5052092;28;20842;-75
2023/07/30 03:15:15;;;;;;;2.37;2.00;;;17.10;99.90;;;;;;5051622;28;20467;-75
2023/07/30 03:17:42;;;;;;;2.10;1.90;;;17.10;99.90;;;;;;5051706;28;21045;-75
2023/07/30 03:20:11;;;;;;;2.23;2.03;;;17.10;99.90;;;;;;5051795;28;20460;-75
2023/07/30 03:22:37;;;;;;;2.13;1.87;;;17.10;99.90;;;;;;5052052;28;20464;-75
2023/07/30 03:25:05;;;;;;;3.33;1.90;;;17.00;99.90;;;;;;5051719;28;20839;-75
2023/07/30 03:27:32;;;;;;;2.50;2.27;;;17.00;99.90;;;;;;5051159;28;20483;-75
2023/07/30 03:29:58;;;;;;;2.90;1.93;;;17.00;99.90;;;;;;5052019;28;20870;-75
2023/07/30 03:32:25;;;;;;;2.40;1.90;;;17.00;99.90;;;;;;5051222;28;20487;-75
2023/07/30 03:34:52;;;;;;;2.80;2.17;;;17.00;99.90;;;;;;5051664;28;20464;-75
2023/07/30 03:37:20;;;;;;;3.37;2.23;;;17.00;99.90;;;;;;5050825;28;20466;-75
2023/07/30 03:39:46;;;;;;;2.47;2.27;;;17.00;99.90;;;;;;5051617;28;20470;-75
2023/07/30 03:42:13;;;;;;;1.70;1.60;;;17.00;99.90;;;;;;5051452;28;20966;-75
2023/07/30 03:44:40;;;;;;;2.13;1.93;;;17.00;99.90;;;;;;5051354;28;20471;-75
2023/07/30 03:47:06;;;;;;;2.27;1.97;;;17.10;99.90;;;;;;5050942;28;20470;-75
2023/07/30 03:49:33;;;;;;;2.67;2.47;;;17.10;99.90;;;;;;5051135;28;20460;-75
2023/07/30 03:52:00;;;;;;;3.23;1.97;;;17.10;99.90;;;;;;5051476;28;20486;-75
2023/07/30 03:54:28;;;;;;;2.60;2.40;;;17.10;99.90;;;;;;5050836;28;20471;-75
2023/07/30 03:56:55;;;;;;;2.17;1.97;;;17.10;99.90;;;;;;5050853;28;20473;-75
2023/07/30 03:59:22;;;;;;;3.50;2.50;;;17.10;99.90;;;;;;5050691;28;20487;-75
2023/07/30 04:01:48;;;;;;;2.93;1.90;;;17.10;99.90;;;;;;5051343;28;20575;-75
2023/07/30 04:04:15;;;;;;;2.47;1.80;;;17.10;99.90;;;;;;5050880;28;20479;-75
2023/07/30 04:06:42;;;;;;;2.40;1.87;;;17.10;99.90;;;;;;5050533;28;20459;-75
2023/07/30 04:09:09;;;;;;;2.60;2.37;;;17.10;99.90;;;;;;5051146;28;20483;-75
2023/07/30 04:11:37;;;;;;;2.33;1.80;;;17.10;99.90;;;;;;5050642;28;20492;-74
2023/07/30 04:14:04;;;;;;;2.20;1.90;;;17.20;99.90;;;;;;5050977;28;20471;-75
2023/07/30 04:16:31;;;;;;;2.60;2.10;;;17.20;99.90;;;;;;5050101;28;20522;-75
2023/07/30 04:18:58;;;;;;;2.90;1.90;;;17.20;99.90;;;;;;5050902;28;20486;-75
2023/07/30 04:21:25;;;;;;;2.27;2.07;;;17.20;99.90;;;;;;5050440;28;20468;-75
2023/07/30 04:23:52;;;;;;;2.43;2.00;;;17.20;99.90;;;;;;5050898;28;20463;-75
2023/07/30 04:26:18;;;;;;;2.23;2.03;;;17.20;99.90;;;;;;5050475;28;20470;-74
2023/07/30 04:28:46;;;;;;;2.80;2.00;;;17.20;99.90;;;;;;5050478;28;20482;-75
2023/07/30 04:31:13;;;;;;;1.80;1.67;;;17.20;99.90;;;;;;5050697;28;20539;-75
2023/07/30 04:33:40;;;;;;;2.70;1.97;;;17.10;99.90;;;;;;5050449;28;20850;-75
2023/07/30 04:36:07;;;;;;;2.30;2.10;;;17.10;99.90;;;;;;5050552;28;20471;-74
2023/07/30 04:38:34;;;;;;;2.00;1.80;;;17.10;99.90;;;;;;5049784;28;21234;-75
2023/07/30 04:41:01;;;;;;;4.10;2.60;;;17.10;99.90;;;;;;5050650;28;20463;-75
2023/07/30 04:43:27;;;;;;;1.87;1.67;;;17.10;99.90;;;;;;5050143;28;20455;-75
2023/07/30 04:45:55;;;;;;;2.00;1.80;;;17.20;99.90;;;;;;5050355;28;20462;-75
2023/07/30 04:48:22;;;;;;;2.20;1.80;;;17.20;99.90;;;;;;5049586;28;20557;-75
2023/07/30 04:50:49;;;;;;;2.33;1.83;;;17.20;99.90;;;;;;5050584;28;20463;-75
2023/07/30 04:53:16;;;;;;;2.10;1.90;;;17.10;99.90;;;;;;5050092;28;20480;-74
2023/07/30 04:55:43;;;;;;;2.57;2.20;;;17.20;99.90;;;;;;5050048;28;20494;-75
2023/07/30 04:58:10;;;;;;;2.20;1.87;;;17.20;99.90;;;;;;5049961;28;20502;-75
2023/07/30 05:00:37;;;;;;;2.30;2.10;;;17.20;99.90;;;;;;5049715;28;20475;-75
2023/07/30 05:03:05;;;;;;;2.13;1.93;;;17.20;99.90;;;;;;5050209;28;20455;-75
2023/07/30 05:05:31;;;;;;;2.13;1.90;;;17.20;99.90;;;;;;5049807;28;20469;-75
2023/07/30 05:07:58;;;;;;;1.90;1.80;;;17.20;99.90;;;;;;5049847;28;20541;-75
2023/07/30 05:10:25;;;;;;;2.97;2.03;;;17.20;99.90;;;;;;5049734;28;20455;-75
2023/07/30 05:12:52;;;;;;;2.23;2.00;;;17.20;99.90;;;;;;5050140;28;20494;-75
2023/07/30 05:15:18;;;;;;;2.47;2.07;;;17.20;99.90;;;;;;5049723;28;20455;-75
2023/07/30 05:17:45;;;;;;;2.40;2.20;;;17.20;99.90;;;;;;5049574;28;20494;-75
2023/07/30 05:20:13;;;;;;;5.83;2.70;;;17.20;99.90;;;;;;5050115;28;20464;-75
2023/07/30 05:22:40;;;;;;;1.83;1.73;;;17.20;99.90;;;;;;5049617;28;20466;-76
2023/07/30 05:25:07;;;;;;;2.43;2.13;;;17.20;99.90;;;;;;5049948;28;20459;-75
2023/07/30 05:27:34;;;;;;;2.47;1.90;;;17.30;99.90;;;;;;5049219;28;20505;-75
2023/07/30 05:30:01;;;;;;;8.60;2.60;;;17.30;99.90;;;;;;5031839;28;20461;-75
2023/07/30 05:32:27;;;;;;;2.50;2.23;;;17.30;99.90;;;;;;5013106;28;20482;-75
2023/07/30 05:34:54;;;;;;;1.70;1.60;;;17.30;99.90;;;;;;5028950;28;20465;-75
2023/07/30 05:37:23;;;;;;;2.70;2.07;;;17.40;99.90;;;;;;5020263;28;20532;-75
2023/07/30 05:39:49;;;;;;;2.43;1.73;;;17.40;99.90;;;;;;5023100;28;20896;-76
2023/07/30 05:42:16;;;;;;;2.40;2.17;;;17.40;99.90;;;;;;5022680;28;21072;-75
2023/07/30 05:44:43;;;;;;;2.23;2.03;;;17.40;99.90;;;;;;5022583;28;20467;-75
2023/07/30 05:47:09;;;;;;;2.13;1.87;;;17.40;99.90;;;;;;5022909;28;20858;-75
2023/07/30 05:49:36;;;;;;;1.70;1.60;;;17.50;99.90;;;;;;5021807;28;20472;-75
2023/07/30 05:52:03;;;;;;;2.03;1.60;;;17.50;99.90;;;;;;5024449;28;20461;-75
2023/07/30 05:54:31;;;;;;;2.43;2.03;;;17.50;99.90;;;;;;5023339;28;20488;-75
2023/07/30 05:56:58;;;;;;;2.23;1.90;;;17.50;99.90;;;;;;5024095;28;20469;-75
2023/07/30 05:59:25;;;;;;;1.80;1.57;;;17.60;99.90;;;;;;5097738;22;20502;-92
2023/07/30 06:01:53;;;;;;;1.83;1.70;;;17.60;99.90;;;;;;5049143;28;21006;-93
2023/07/30 06:04:20;;;;;;;3.53;1.80;;;17.70;99.90;;;;;;5049381;28;20448;-92
2023/07/30 06:06:47;;;;;;;3.67;1.73;;;17.70;99.90;;;;;;5050835;28;20456;-92
2023/07/30 06:09:13;;;;;;;1.87;1.70;;;17.70;99.90;;;;;;5051166;28;20991;-92
2023/07/30 06:11:42;;;;;;;1.73;1.30;;;17.70;99.90;;;;;;5048214;28;20487;-92
2023/07/30 06:14:09;;;;;;;2.17;1.80;;;17.80;99.90;;;;;;5052949;28;20484;-91
2023/07/30 06:16:36;;;;;;;2.17;1.60;;;17.80;99.90;;;;;;5044645;28;20458;-92
2023/07/30 06:19:03;;;;;;;1.57;1.47;;;17.80;99.90;;;;;;5055465;28;20475;-92
2023/07/30 06:21:30;;;;;;;1.90;1.70;;;17.80;99.90;;;;;;5058824;28;20460;-92
2023/07/30 06:23:57;;;;;;;1.60;1.50;;;17.90;99.90;;;;;;5050009;28;20455;-92
2023/07/30 06:26:24;;;;;;;2.13;1.93;;;18.00;99.90;;;;;;5047995;28;20452;-93
2023/07/30 06:28:52;;;;;;;2.30;2.10;;;18.00;99.90;;;;;;5058069;28;20574;-92
2023/07/30 06:31:19;;;;;;;1.50;1.40;;;18.00;99.90;;;;;;5053781;28;20988;-94
2023/07/30 06:33:46;;;;;;;2.43;1.80;;;18.10;99.90;;;;;;5060120;28;20471;-92
2023/07/30 06:36:13;;;;;;;1.70;1.43;;;18.10;99.90;;;;;;5059291;28;20467;-92
2023/07/30 06:38:40;;;;;;;2.60;1.90;;;18.20;99.90;;;;;;5058213;28;20487;-94
2023/07/30 06:41:07;;;;;;;1.60;1.50;;;18.30;99.90;;;;;;5060816;28;20456;-93
2023/07/30 06:43:34;;;;;;;1.60;1.50;;;18.40;99.90;;;;;;5056923;28;20460;-93
2023/07/30 06:46:03;;;;;;;1.90;1.70;;;18.40;99.90;;;;;;5056855;28;20467;-92
2023/07/30 06:48:30;;;;;;;1.93;1.80;;;18.40;99.90;;;;;;5055525;28;20484;-92
2023/07/30 06:50:57;;;;;;;2.00;1.80;;;18.40;99.90;;;;;;5050177;28;20482;-92
2023/07/30 06:53:24;;;;;;;1.97;1.60;;;18.50;99.90;;;;;;5047043;28;20487;-92
2023/07/30 06:55:50;;;;;;;1.43;1.33;;;18.60;99.90;;;;;;5056898;28;20476;-92
2023/07/30 06:58:17;;;;;;;1.90;1.60;;;18.70;99.90;;;;;;5057824;28;20502;-93
2023/07/30 07:00:44;;;;;;;3.23;1.50;;;18.80;99.90;;;;;;5057502;28;20543;-92
2023/07/30 07:03:12;;;;;;;1.60;1.50;;;18.80;99.90;;;;;;5062376;28;20460;-93
2023/07/30 07:05:39;;;;;;;1.40;1.30;;;18.80;99.90;;;;;;5063569;28;20474;-91
2023/07/30 07:08:05;;;;;;;1.93;1.73;;;18.80;99.90;;;;;;5057411;28;20480;-93
2023/07/30 07:10:32;;;;;;;1.67;1.43;;;18.80;99.90;;;;;;5060012;28;20455;-92
2023/07/30 07:12:59;;;;;;;1.67;1.20;;;18.80;99.90;;;;;;5059668;28;20479;-91
2023/07/30 07:15:25;;;;;;;1.63;1.43;;;18.80;99.90;;;;;;5058341;28;20463;-92
2023/07/30 07:17:52;;;;;;;2.07;1.50;;;18.80;99.90;;;;;;5057755;28;21019;-91
2023/07/30 07:20:20;;;;;;;1.40;1.30;;;18.80;99.90;;;;;;5059597;28;20848;-93
2023/07/30 07:22:48;;;;;;;1.80;1.53;;;18.80;99.90;;;;;;5074997;28;20463;-92
2023/07/30 07:25:18;;;;;;;1.80;1.43;;;18.80;99.90;;;;;;5063598;28;20936;-92
2023/07/30 07:27:45;;;;;;;1.67;1.57;;;18.80;99.90;;;;;;5055824;28;20480;-92
2023/07/30 07:30:12;;;;;;;2.10;1.13;;;18.80;99.90;;;;;;5055797;28;20461;-92
2023/07/30 07:32:39;;;;;;;1.57;1.47;;;18.80;99.90;;;;;;5055747;28;20497;-92
2023/07/30 07:35:07;;;;;;;3.40;1.50;;;18.70;99.90;;;;;;5066936;28;20481;-91
2023/07/30 07:37:36;;;;;;;1.50;1.40;;;18.60;99.90;;;;;;5062828;28;20464;-92
2023/07/30 07:40:03;;;;;;;1.60;1.23;;;18.50;99.90;;;;;;5054943;28;20460;-91
2023/07/30 07:42:30;;;;;;;1.67;1.50;;;18.40;99.90;;;;;;5054082;28;20518;-91
2023/07/30 07:44:57;;;;;;;1.60;1.33;;;18.50;99.90;;;;;;5054577;28;20457;-91
2023/07/30 07:47:24;;;;;;;1.27;1.17;;;18.50;99.90;;;;;;5054257;28;20455;-91
2023/07/30 07:49:50;;;;;;;1.87;1.77;;;18.50;99.90;;;;;;5041779;28;20468;-91
2023/07/30 07:52:17;;;;;;;1.63;1.20;;;18.50;99.90;;;;;;5048546;28;20472;-91
2023/07/30 07:54:45;;;;;;;2.00;1.40;;;18.50;99.90;;;;;;5059978;28;20479;-91
2023/07/30 07:57:12;;;;;;;1.60;1.30;;;18.50;99.90;;;;;;5073548;28;20460;-90
2023/07/30 07:59:41;;;;;;;1.67;1.47;;;18.50;99.90;;;;;;5067827;28;20498;-90
2023/07/30 08:02:08;;;;;;;1.53;1.43;;;18.50;99.90;;;;;;5054096;28;20474;-91
2023/07/30 08:04:35;;;;;;;1.30;1.20;;;18.60;99.90;;;;;;5056618;28;20479;-92
2023/07/30 08:07:03;;;;;;;2.00;1.30;;;18.60;99.90;;;;;;5063212;28;20464;-92
2023/07/30 08:09:30;;;;;;;2.00;1.10;;;18.70;99.90;;;;;;5069640;28;20475;-94
2023/07/30 08:11:58;;;;;;;2.47;1.40;;;18.70;99.90;;;;;;5070258;28;20482;-92
2023/07/30 08:14:25;;;;;;;1.57;1.30;;;18.80;99.90;;;;;;5068633;28;20520;-91
2023/07/30 08:16:51;;;;;;;1.20;1.03;;;18.90;99.90;;;;;;5076845;28;20955;-91
2023/07/30 08:19:18;;;;;;;1.67;1.23;;;18.90;99.90;;;;;;5076847;28;20479;-91
2023/07/30 08:21:45;;;;;;;1.67;1.57;;;19.00;99.90;;;;;;5076045;28;20468;-92
2023/07/30 08:24:12;;;;;;;1.33;1.23;;;19.10;99.90;;;;;;5075774;28;20462;-92
2023/07/30 08:26:38;;;;;;;1.30;1.20;;;19.30;99.90;;;;;;5076298;28;20470;-92
2023/07/30 08:29:09;;;;;;;1.97;1.50;;;19.50;99.90;;;;;;5078138;28;20489;-92
2023/07/30 08:31:36;;;;;;;1.50;1.40;;;19.80;99.90;;;;;;5076239;28;20467;-92
2023/07/30 08:34:03;;;;;;;1.30;1.20;;;20.00;99.90;;;;;;5076548;28;20480;-92
2023/07/30 08:36:30;;;;;;;1.60;1.20;;;20.10;99.90;;;;;;5076261;28;20463;-91
2023/07/30 08:38:56;;;;;;;2.70;1.60;;;20.10;99.90;;;;;;5074985;28;21220;-91
2023/07/30 08:41:23;;;;;;;1.20;1.07;;;20.10;99.90;;;;;;5057956;28;20463;-92
2023/07/30 08:43:52;;;;;;;1.77;1.50;;;20.00;99.90;;;;;;5055989;28;20848;-92
2023/07/30 08:46:20;;;;;;;1.53;1.43;;;20.00;99.90;;;;;;5055648;28;20560;-92
2023/07/30 08:48:47;;;;;;;1.80;1.50;;;20.00;99.90;;;;;;5054714;28;20485;-92
2023/07/30 08:51:15;;;;;;;2.50;1.60;;;20.00;99.90;;;;;;5052494;28;20470;-92
2023/07/30 08:53:43;;;;;;;1.63;1.43;;;20.00;99.90;;;;;;5054402;28;20496;-92
2023/07/30 08:56:10;;;;;;;2.43;1.90;;;20.10;99.90;;;;;;5058181;28;20469;-92
2023/07/30 08:58:38;;;;;;;1.90;1.70;;;20.20;99.90;;;;;;5063903;28;20577;-93
2023/07/30 09:01:11;;;;;;;1.70;1.50;;;20.30;99.90;;;;;;5066230;28;20490;-94
2023/07/30 09:03:42;;;;;;;2.40;1.73;;;20.40;99.90;;;;;;5065064;28;20464;-93
2023/07/30 09:06:10;;;;;;;2.30;1.80;;;20.60;99.90;;;;;;5077793;28;20464;-93
2023/07/30 09:08:37;;;;;;;2.20;1.57;;;20.80;99.90;;;;;;5083788;28;20708;-93
2023/07/30 09:11:10;;;;;;;2.10;1.90;;;20.90;99.90;;;;;;5083330;28;20466;-92
2023/07/30 09:13:42;;;;;;;1.53;1.33;;;21.00;99.90;;;;;;5072752;28;20503;-93
2023/07/30 09:16:13;;;;;;;1.90;1.67;;;20.80;99.90;;;;;;5069107;28;20992;-93
2023/07/30 09:18:46;;;;;;;1.43;1.33;;;20.60;99.90;;;;;;5071371;28;20529;-93
2023/07/30 09:21:14;;;;;;;1.80;1.70;;;20.50;99.90;;;;;;5073620;28;20485;-93
2023/07/30 09:23:42;;;;;;;1.77;1.43;;;20.30;99.90;;;;;;5070747;28;20454;-92
2023/07/30 09:26:09;;;;;;;1.73;1.50;;;20.20;99.90;;;;;;5065153;28;20469;-92
2023/07/30 09:28:36;;;;;;;2.10;1.90;;;20.10;99.90;;;;;;5056368;28;20821;-93
2023/07/30 09:31:20;;;;;;;1.53;1.43;;;20.00;99.90;;;;;;5066404;28;20500;-92
2023/07/30 09:33:49;;;;;;;2.07;1.43;;;19.70;99.90;;;;;;5056097;28;20488;-93
2023/07/30 09:36:20;;;;;;;1.60;1.50;;;19.60;99.90;;;;;;5057090;28;20974;-93
2023/07/30 09:38:49;;;;;;;1.70;1.60;;;19.40;99.90;;;;;;5057795;28;20491;-93
2023/07/30 09:41:17;;;;;;;1.90;1.80;;;19.40;99.90;;;;;;5062185;28;20461;-93
2023/07/30 09:43:48;;;;;;;1.83;1.70;;;19.30;99.90;;;;;;5063059;28;20472;-92
2023/07/30 09:46:16;;;;;;;2.47;1.33;;;19.30;99.90;;;;;;5064413;28;20541;-93
2023/07/30 09:48:43;;;;;;;3.30;1.70;;;19.30;99.90;;;;;;5081311;28;20485;-93
2023/07/30 09:51:12;;;;;;;2.00;1.60;;;19.40;99.90;;;;;;5069016;28;20457;-93
2023/07/30 09:53:39;;;;;;;1.50;1.40;;;19.40;99.90;;;;;;5058242;28;20474;-92
2023/07/30 09:56:07;;;;;;;2.40;1.60;;;19.50;99.90;;;;;;5067669;28;20471;-92
2023/07/30 09:58:36;;;;;;;1.93;1.73;;;19.50;99.90;;;;;;5075233;28;20567;-92
2023/07/30 10:01:04;;;;;;;1.60;1.50;;;19.60;99.90;;;;;;5062997;28;20453;-92
2023/07/30 10:17:01;;;;;;;1.70;1.50;;;20.70;99.90;;;;;;5023373;28;20460;-92
2023/07/30 10:20:03;;;;;;;2.27;1.80;;;21.00;99.90;;;;;;5082449;28;20483;-93
2023/07/30 10:22:29;;;;;;;1.93;1.73;;;21.20;99.90;;;;;;5079375;28;20462;-93
2023/07/30 10:31:54;;;;;;;3.53;1.53;;;21.50;99.90;;;;;;5045081;28;20467;-92
2023/07/30 10:38:14;;;;;;;1.87;1.63;;;21.40;99.90;;;;;;4924531;22;20552;-69
2023/07/30 10:40:44;;;;;;;1.97;1.70;;;21.70;99.90;;;;;;5048681;28;21051;-69
2023/07/30 10:43:20;;;;;;;1.60;1.50;;;21.80;99.90;;;;;;5070513;28;20557;-69
2023/07/30 10:45:52;;;;;;;2.33;1.83;;;21.80;99.90;;;;;;5071386;28;21023;-69
2023/07/30 10:48:19;;;;;;;1.80;1.60;;;21.70;99.90;;;;;;5066708;28;20511;-70
2023/07/30 10:50:48;;;;;;;2.00;1.77;;;21.90;99.90;;;;;;5050057;28;20558;-69
2023/07/30 10:53:18;;;;;;;2.03;1.83;;;22.10;99.90;;;;;;5051053;28;20467;-69
2023/07/30 10:55:46;;;;;;;2.17;1.97;;;22.20;99.90;;;;;;5050262;28;20483;-68
2023/07/30 10:58:16;;;;;;;1.93;1.73;;;22.30;99.90;;;;;;5050013;28;20510;-68
2023/07/30 11:00:43;;;;;;;2.00;1.67;;;22.20;99.90;;;;;;5051183;28;20472;-67
2023/07/30 11:03:11;;;;;;;1.90;1.63;;;22.20;99.90;;;;;;5050291;28;20568;-68
2023/07/30 11:05:40;;;;;;;3.03;2.20;;;22.20;99.90;;;;;;5051076;28;20468;-69
2023/07/30 11:08:10;;;;;;;1.83;1.67;;;22.10;99.90;;;;;;5050388;28;20871;-69
2023/07/30 11:10:44;;;;;;;3.30;1.87;;;22.10;99.90;;;;;;5051549;28;20468;-69
2023/07/30 11:13:12;;;;;;;3.03;1.70;;;22.00;99.90;;;;;;5050245;28;20464;-69
2023/07/30 11:15:43;;;;;;;2.20;2.00;;;21.90;99.90;;;;;;5051462;28;20469;-68
2023/07/30 11:18:13;;;;;;;2.47;2.00;;;22.00;99.90;;;;;;5050669;28;20486;-69
2023/07/30 11:20:44;;;;;;;2.83;1.67;;;21.80;99.90;;;;;;5050940;28;20464;-68
2023/07/30 11:23:21;;;;;;;2.03;1.70;;;21.70;99.90;;;;;;5050611;28;20900;-69
2023/07/30 11:25:49;;;;;;;1.77;1.67;;;21.50;99.90;;;;;;5051131;28;20467;-68
2023/07/30 11:28:28;;;;;;;2.10;1.90;;;21.40;99.90;;;;;;5049710;28;21143;-70
2023/07/30 11:30:55;;;;;;;2.17;1.80;;;21.50;99.90;;;;;;5050880;28;20499;-70
2023/07/30 11:33:23;;;;;;;2.17;1.97;;;21.70;99.90;;;;;;5050359;28;20463;-71
2023/07/30 11:35:50;;;;;;;2.00;1.80;;;21.90;99.90;;;;;;5050645;28;20502;-70
2023/07/30 11:38:19;;;;;;;2.30;2.10;;;22.20;99.90;;;;;;5049694;28;20511;-70
2023/07/30 11:40:46;;;;;;;2.00;1.80;;;22.20;99.90;;;;;;5050703;28;20966;-70
2023/07/30 11:43:13;;;;;;;2.00;1.80;;;22.20;99.90;;;;;;5050115;28;20472;-71
2023/07/30 11:45:40;;;;;;;1.70;1.60;;;22.10;99.90;;;;;;5049245;28;20467;-70
2023/07/30 11:48:09;;;;;;;2.10;1.90;;;21.90;99.90;;;;;;5049480;28;20568;-71
2023/07/30 11:50:45;;;;;;;2.53;1.60;;;21.80;99.90;;;;;;5050490;28;20532;-70
2023/07/30 11:53:12;;;;;;;1.73;1.63;;;21.80;99.90;;;;;;5049724;28;20843;-71
2023/07/30 11:55:39;;;;;;;2.77;2.30;;;21.80;99.90;;;;;;5048982;28;20480;-71
2023/07/30 11:58:06;;;;;;;2.07;1.90;;;21.60;99.90;;;;;;5058505;28;20485;-70
2023/07/30 12:00:33;;;;;;;2.40;1.80;;;21.70;99.90;;;;;;5061601;28;20887;-71
2023/07/30 12:03:03;;;;;;;1.90;1.70;;;21.90;99.90;;;;;;5049006;28;20998;-71
2023/07/30 12:05:34;;;;;;;1.97;1.80;;;22.00;99.90;;;;;;5050206;28;20839;-71
2023/07/30 12:08:03;;;;;;;2.60;1.80;;;22.00;99.90;;;;;;5049441;28;20475;-70
2023/07/30 12:10:42;;;;;;;3.23;2.30;;;22.00;99.90;;;;;;5048019;28;20467;-71
2023/07/30 12:13:12;;;;;;;3.50;2.10;;;21.90;99.90;;;;;;5049010;28;20467;-71
2023/07/30 12:15:39;;;;;;;2.30;1.97;;;22.10;99.90;;;;;;5049553;28;20941;-71
2023/07/30 12:18:06;;;;;;;2.57;2.00;;;22.20;99.90;;;;;;5048847;28;20490;-71
2023/07/30 12:20:33;;;;;;;1.67;1.50;;;22.20;99.90;;;;;;5049881;28;20468;-70
2023/07/30 12:23:00;;;;;;;3.70;2.07;;;22.20;99.90;;;;;;5049611;28;20470;-70
2023/07/30 12:25:28;;;;;;;2.67;2.13;;;22.20;99.90;;;;;;5049516;28;20491;-70
2023/07/30 12:27:55;;;;;;;2.23;2.03;;;22.10;99.90;;;;;;5049098;28;20569;-70
2023/07/30 12:30:22;;;;;;;2.33;1.73;;;22.10;99.90;;;;;;5049510;28;20461;-70
2023/07/30 12:32:48;;;;;;;1.93;1.73;;;21.90;99.90;;;;;;5049445;28;20470;-70
2023/07/30 12:35:15;;;;;;;2.33;1.80;;;21.70;99.90;;;;;;5049033;28;20568;-70
2023/07/30 12:37:42;;;;;;;4.27;2.20;;;21.50;99.90;;;;;;5049195;28;20479;-70
2023/07/30 12:40:10;;;;;;;1.87;1.70;;;21.40;99.90;;;;;;5048139;28;20467;-71
2023/07/30 12:42:38;;;;;;;2.87;2.23;;;21.50;99.90;;;;;;5049636;28;20468;-70
2023/07/30 12:45:05;;;;;;;1.83;1.60;;;21.50;99.90;;;;;;5048632;28;20467;-70
2023/07/30 12:47:35;;;;;;;1.97;1.87;;;21.40;99.90;;;;;;5048519;28;20487;-70
2023/07/30 12:50:01;;;;;;;1.70;1.60;;;21.40;99.90;;;;;;5049239;28;20906;-70
2023/07/30 12:52:28;;;;;;;2.30;2.10;;;21.40;99.90;;;;;;5040660;28;20470;-71
2023/07/30 12:54:55;;;;;;;2.00;1.70;;;21.30;99.90;;;;;;5048491;28;20654;-71
2023/07/30 12:57:22;;;;;;;4.00;2.23;;;21.30;99.90;;;;;;5045020;28;20498;-71
2023/07/30 12:59:50;;;;;;;2.50;1.70;;;21.20;99.90;;;;;;5051321;28;20469;-70
2023/07/30 13:02:16;;;;;;;3.20;1.93;;;21.00;99.90;;;;;;5064556;28;20477;-70
2023/07/30 13:04:43;;;;;;;2.17;1.67;;;21.00;99.90;;;;;;5064739;28;20987;-70
2023/07/30 13:07:10;;;;;;;2.33;1.90;;;21.00;99.90;;;;;;5064038;28;20553;-71
2023/07/30 13:09:37;;;;;;;2.73;1.90;;;21.20;99.90;;;;;;5065502;28;20480;-70
2023/07/30 13:12:04;;;;;;;2.10;1.90;;;21.60;99.90;;;;;;5065824;28;20470;-70
2023/07/30 13:14:30;;;;;;;1.80;1.70;;;22.00;99.90;;;;;;5065346;28;20973;-71